Time;durP1;ratioP1;P1;durP2;ratioP2;P2;SDS_P1;SDS_P2;PMS_P1;PMS_P2;Temp;Humidity;BMP_temperature;BMP_pressure;BME280_temperature;BME280_humidity;BME280_pressure;Samples;Min_cycle;Max_cycle;Signal;HPM_P1;HPM_P2
2022/03/12 00:01:56;;;;;;;8.43;5.68;;;;;;;;;;4840893;29;20064;-86
2022/03/12 00:04:22;;;;;;;10.38;5.03;;;;;;;;;;4839702;29;20060;-84
2022/03/12 00:06:49;;;;;;;12.23;5.63;;;;;;;;;;4839731;29;20053;-83
2022/03/12 00:09:15;;;;;;;9.75;4.95;;;;;;;;;;4840798;29;20053;-82
2022/03/12 00:11:50;;;;;;;9.07;5.55;;;;;;;;;;4834410;29;20049;-84
2022/03/12 00:14:19;;;;;;;10.02;5.53;;;;;;;;;;4825360;29;20053;-85
2022/03/12 00:16:45;;;;;;;8.45;5.18;;;;;;;;;;4855145;29;20125;-85
2022/03/12 00:19:11;;;;;;;10.00;5.53;;;;;;;;;;4854932;29;21818;-85
2022/03/12 00:21:42;;;;;;;11.70;5.72;;;;;;;;;;4854479;29;20059;-84
2022/03/12 00:24:08;;;;;;;9.40;5.88;;;;;;;;;;4850001;29;20049;-81
2022/03/12 00:26:43;;;;;;;8.27;5.93;;;;;;;;;;4833250;29;20380;-79
2022/03/12 00:29:13;;;;;;;10.57;6.05;;;;;;;;;;4848242;29;20049;-77
2022/03/12 00:31:40;;;;;;;10.23;5.57;;;;;;;;;;4849176;29;20057;-76
2022/03/12 00:34:06;;;;;;;10.75;5.28;;;;;;;;;;4857854;29;20107;-76
2022/03/12 00:36:32;;;;;;;7.97;5.38;;;;;;;;;;4837311;29;20041;-76
2022/03/12 00:38:58;;;;;;;10.43;6.03;;;;;;;;;;4826238;29;20053;-77
2022/03/12 00:41:25;;;;;;;9.57;5.60;;;;;;;;;;4856025;29;20045;-76
2022/03/12 00:43:52;;;;;;;11.65;5.40;;;;;;;;;;4850585;29;20049;-77
2022/03/12 00:46:20;;;;;;;10.10;6.00;;;;;;;;;;4838354;29;20083;-76
2022/03/12 00:48:46;;;;;;;8.98;5.57;;;;;;;;;;4837480;29;20049;-75
2022/03/12 00:51:12;;;;;;;8.77;5.47;;;;;;;;;;4852618;29;20049;-76
2022/03/12 00:53:40;;;;;;;11.18;5.72;;;;;;;;;;4848381;29;20496;-77
2022/03/12 00:56:06;;;;;;;7.85;5.10;;;;;;;;;;4838499;29;20521;-76
2022/03/12 00:58:32;;;;;;;8.95;5.50;;;;;;;;;;4832448;29;20094;-76
2022/03/12 01:00:58;;;;;;;13.18;6.00;;;;;;;;;;4853614;29;20064;-76
2022/03/12 01:03:25;;;;;;;10.23;5.97;;;;;;;;;;4846997;29;21379;-77
2022/03/12 01:05:51;;;;;;;9.80;5.63;;;;;;;;;;4840415;29;20358;-76
2022/03/12 01:08:22;;;;;;;8.65;5.55;;;;;;;;;;4839157;29;20055;-75
2022/03/12 01:10:48;;;;;;;11.40;5.85;;;;;;;;;;4837988;29;20052;-76
2022/03/12 01:13:15;;;;;;;9.35;5.63;;;;;;;;;;4843844;29;20053;-76
2022/03/12 01:15:41;;;;;;;10.95;5.78;;;;;;;;;;4842812;29;20055;-75
2022/03/12 01:18:13;;;;;;;13.15;5.50;;;;;;;;;;4841245;29;20184;-76
2022/03/12 01:20:40;;;;;;;11.02;6.03;;;;;;;;;;4840582;29;20370;-76
2022/03/12 01:23:07;;;;;;;9.43;6.22;;;;;;;;;;4852044;29;20495;-75
2022/03/12 01:25:33;;;;;;;9.57;5.40;;;;;;;;;;4840935;29;20037;-76
2022/03/12 01:27:59;;;;;;;13.15;5.80;;;;;;;;;;4841778;29;20129;-76
2022/03/12 01:30:27;;;;;;;9.85;5.63;;;;;;;;;;4825965;29;20519;-77
2022/03/12 01:32:53;;;;;;;8.07;4.85;;;;;;;;;;4851396;29;20378;-75
2022/03/12 01:35:19;;;;;;;11.45;5.65;;;;;;;;;;4850644;29;20041;-76
2022/03/12 01:37:45;;;;;;;8.75;5.25;;;;;;;;;;4837166;29;20097;-75
2022/03/12 01:40:11;;;;;;;7.95;5.53;;;;;;;;;;4827451;29;20059;-76
2022/03/12 01:42:38;;;;;;;10.30;5.50;;;;;;;;;;4838383;29;20046;-79
2022/03/12 01:45:09;;;;;;;8.35;5.50;;;;;;;;;;4852608;29;20137;-75
2022/03/12 01:47:35;;;;;;;8.52;5.35;;;;;;;;;;4849854;29;20057;-76
2022/03/12 01:50:01;;;;;;;8.70;5.32;;;;;;;;;;4836152;29;20136;-76
2022/03/12 01:52:28;;;;;;;9.10;5.85;;;;;;;;;;4849849;29;20042;-76
2022/03/12 01:54:55;;;;;;;12.23;5.95;;;;;;;;;;4841921;29;20548;-76
2022/03/12 01:57:21;;;;;;;9.57;6.43;;;;;;;;;;4833513;29;20152;-77
2022/03/12 01:59:48;;;;;;;7.80;4.95;;;;;;;;;;4850729;29;20524;-76
2022/03/12 02:02:15;;;;;;;13.82;5.70;;;;;;;;;;4851220;29;20556;-76
2022/03/12 02:04:49;;;;;;;10.07;6.05;;;;;;;;;;4837485;29;20041;-76
2022/03/12 02:07:16;;;;;;;10.45;6.00;;;;;;;;;;4848931;29;20053;-76
2022/03/12 02:09:44;;;;;;;9.32;5.43;;;;;;;;;;4855643;29;20382;-76
2022/03/12 02:12:11;;;;;;;8.02;5.45;;;;;;;;;;4853865;29;20418;-77
2022/03/12 02:14:37;;;;;;;9.85;5.60;;;;;;;;;;4844387;29;20053;-76
2022/03/12 02:17:10;;;;;;;11.65;6.15;;;;;;;;;;4842323;29;20052;-76
2022/03/12 02:19:38;;;;;;;10.37;5.50;;;;;;;;;;4842329;29;21567;-76
2022/03/12 02:22:06;;;;;;;10.80;5.55;;;;;;;;;;4833693;29;20441;-77
2022/03/12 02:24:34;;;;;;;9.75;5.93;;;;;;;;;;4822907;29;20045;-77
2022/03/12 02:27:01;;;;;;;10.88;5.53;;;;;;;;;;4832728;29;20064;-77
2022/03/12 02:29:27;;;;;;;13.38;6.90;;;;;;;;;;4831856;29;20038;-77
2022/03/12 02:31:56;;;;;;;8.80;5.68;;;;;;;;;;4831390;29;20060;-76
2022/03/12 02:34:25;;;;;;;15.00;6.03;;;;;;;;;;4834007;29;20049;-76
2022/03/12 02:36:52;;;;;;;8.82;6.03;;;;;;;;;;4816327;29;20053;-76
2022/03/12 02:39:19;;;;;;;9.85;6.18;;;;;;;;;;4833311;29;20053;-76
2022/03/12 02:41:45;;;;;;;9.93;6.20;;;;;;;;;;4823091;29;20050;-76
2022/03/12 02:44:17;;;;;;;13.30;5.75;;;;;;;;;;4819290;29;20458;-76
2022/03/12 02:46:43;;;;;;;7.75;5.10;;;;;;;;;;4820118;29;20076;-76
2022/03/12 02:49:09;;;;;;;9.27;6.03;;;;;;;;;;4818640;29;20077;-76
2022/03/12 02:51:35;;;;;;;7.47;6.03;;;;;;;;;;4818366;29;20490;-77
2022/03/12 02:54:01;;;;;;;9.82;6.15;;;;;;;;;;4832324;29;20058;-77
2022/03/12 02:56:29;;;;;;;11.63;5.80;;;;;;;;;;4817390;29;20046;-77
2022/03/12 02:58:55;;;;;;;10.35;6.05;;;;;;;;;;4838022;29;20053;-76
2022/03/12 03:01:26;;;;;;;13.00;5.90;;;;;;;;;;4819626;29;20125;-77
2022/03/12 03:03:53;;;;;;;9.27;6.03;;;;;;;;;;4815105;29;20944;-76
2022/03/12 03:06:20;;;;;;;9.13;6.70;;;;;;;;;;4821142;29;20060;-76
2022/03/12 03:08:46;;;;;;;11.15;5.68;;;;;;;;;;4828461;29;20121;-76
2022/03/12 03:11:16;;;;;;;10.00;5.80;;;;;;;;;;4815973;29;20049;-76
2022/03/12 03:13:44;;;;;;;9.65;5.75;;;;;;;;;;4834000;29;20081;-77
2022/03/12 03:16:10;;;;;;;13.05;6.10;;;;;;;;;;4833271;29;20050;-77
2022/03/12 03:18:39;;;;;;;9.00;5.47;;;;;;;;;;4846176;29;20104;-77
2022/03/12 03:21:10;;;;;;;11.90;5.30;;;;;;;;;;4852324;29;20493;-78
2022/03/12 03:23:36;;;;;;;10.10;6.07;;;;;;;;;;4842895;29;20477;-78
2022/03/12 03:26:03;;;;;;;7.13;5.50;;;;;;;;;;4826552;29;20060;-78
2022/03/12 03:28:29;;;;;;;9.32;5.85;;;;;;;;;;4841232;29;20057;-78
2022/03/12 03:30:55;;;;;;;9.23;5.70;;;;;;;;;;4832982;29;20414;-78
2022/03/12 03:33:22;;;;;;;7.97;5.70;;;;;;;;;;4852955;29;20375;-76
2022/03/12 03:35:49;;;;;;;17.58;5.75;;;;;;;;;;4825433;29;20118;-76
2022/03/12 03:38:15;;;;;;;10.30;6.00;;;;;;;;;;4836809;29;20045;-77
2022/03/12 03:40:42;;;;;;;10.65;5.88;;;;;;;;;;4835732;29;20133;-76
2022/03/12 03:43:12;;;;;;;10.43;6.03;;;;;;;;;;4849208;29;20361;-77
2022/03/12 03:45:38;;;;;;;13.15;5.88;;;;;;;;;;4855649;29;20049;-77
2022/03/12 03:48:05;;;;;;;9.70;5.78;;;;;;;;;;4858700;29;20045;-77
2022/03/12 03:50:31;;;;;;;7.97;5.78;;;;;;;;;;4839197;29;20139;-77
2022/03/12 03:52:58;;;;;;;13.30;6.45;;;;;;;;;;4836867;29;20053;-77
2022/03/12 03:55:28;;;;;;;12.15;6.18;;;;;;;;;;4839344;29;20069;-77
2022/03/12 03:57:54;;;;;;;11.82;6.20;;;;;;;;;;4841574;29;20437;-77
2022/03/12 04:00:24;;;;;;;9.00;6.32;;;;;;;;;;4842541;29;20145;-77
2022/03/12 04:03:04;;;;;;;13.32;7.22;;;;;;;;;;4841160;29;20397;-77
2022/03/12 04:05:32;;;;;;;11.15;5.72;;;;;;;;;;4834065;29;20118;-77
2022/03/12 04:08:00;;;;;;;8.65;6.03;;;;;;;;;;4858235;29;20433;-78
2022/03/12 04:10:26;;;;;;;10.45;6.50;;;;;;;;;;4853635;29;20416;-78
2022/03/12 04:12:52;;;;;;;8.85;6.40;;;;;;;;;;4841972;29;20197;-77
2022/03/12 04:15:18;;;;;;;12.75;6.38;;;;;;;;;;4842090;29;20052;-78
2022/03/12 04:17:45;;;;;;;8.55;6.22;;;;;;;;;;4840808;29;20058;-77
2022/03/12 04:20:15;;;;;;;12.70;6.53;;;;;;;;;;4833008;29;20073;-78
2022/03/12 04:22:41;;;;;;;10.73;6.50;;;;;;;;;;4816038;29;20057;-78
2022/03/12 04:25:13;;;;;;;8.75;5.65;;;;;;;;;;4835201;29;20045;-78
2022/03/12 04:27:44;;;;;;;10.02;6.55;;;;;;;;;;4823099;29;20050;-78
2022/03/12 04:30:11;;;;;;;13.20;6.35;;;;;;;;;;4819527;29;20097;-78
2022/03/12 04:32:38;;;;;;;9.35;6.03;;;;;;;;;;4816771;29;20058;-78
2022/03/12 04:35:05;;;;;;;11.48;6.53;;;;;;;;;;4835475;29;20113;-77
2022/03/12 04:37:31;;;;;;;10.85;6.57;;;;;;;;;;4821070;29;20049;-77
2022/03/12 04:39:57;;;;;;;10.38;6.00;;;;;;;;;;4837014;29;20053;-76
2022/03/12 04:42:23;;;;;;;13.05;6.10;;;;;;;;;;4821680;29;20196;-77
2022/03/12 04:44:50;;;;;;;9.10;6.00;;;;;;;;;;4821262;29;20038;-77
2022/03/12 04:47:19;;;;;;;10.55;5.85;;;;;;;;;;4822860;29;20058;-77
2022/03/12 04:49:46;;;;;;;9.68;6.13;;;;;;;;;;4817609;29;20061;-77
2022/03/12 04:52:12;;;;;;;8.35;5.97;;;;;;;;;;4836411;29;20038;-77
2022/03/12 04:54:39;;;;;;;9.30;5.80;;;;;;;;;;4818852;29;20114;-78
2022/03/12 04:57:05;;;;;;;10.43;6.18;;;;;;;;;;4822292;29;20519;-77
2022/03/12 04:59:31;;;;;;;12.15;6.68;;;;;;;;;;4824769;29;20050;-77
2022/03/12 05:01:57;;;;;;;8.95;6.25;;;;;;;;;;4821183;29;20049;-77
2022/03/12 05:04:24;;;;;;;10.40;6.30;;;;;;;;;;4830311;29;20045;-77
2022/03/12 05:06:50;;;;;;;9.95;6.97;;;;;;;;;;4816354;29;20053;-77
2022/03/12 05:09:16;;;;;;;10.13;5.68;;;;;;;;;;4817394;29;20081;-77
2022/03/12 05:11:42;;;;;;;9.88;6.28;;;;;;;;;;4829988;29;20041;-77
2022/03/12 05:14:10;;;;;;;9.68;5.97;;;;;;;;;;4816456;29;20762;-76
2022/03/12 05:16:36;;;;;;;14.77;6.70;;;;;;;;;;4834964;29;20056;-76
2022/03/12 05:19:06;;;;;;;10.63;6.15;;;;;;;;;;4830371;29;20061;-76
2022/03/12 05:21:32;;;;;;;9.90;6.65;;;;;;;;;;4840504;29;20041;-77
2022/03/12 05:23:59;;;;;;;8.85;6.03;;;;;;;;;;4855097;29;20083;-77
2022/03/12 05:26:25;;;;;;;13.77;6.22;;;;;;;;;;4839433;29;20132;-77
2022/03/12 05:28:51;;;;;;;9.98;6.00;;;;;;;;;;4833300;29;21613;-76
2022/03/12 05:31:17;;;;;;;13.38;6.75;;;;;;;;;;4828686;29;20053;-76
2022/03/12 05:33:44;;;;;;;11.30;7.07;;;;;;;;;;4856820;29;20040;-76
2022/03/12 05:36:10;;;;;;;8.80;5.95;;;;;;;;;;4826681;29;20061;-77
2022/03/12 05:38:37;;;;;;;12.02;6.65;;;;;;;;;;4852197;29;20514;-77
2022/03/12 05:41:10;;;;;;;9.75;6.18;;;;;;;;;;4827617;29;20384;-77
2022/03/12 05:43:39;;;;;;;9.40;6.93;;;;;;;;;;4848084;29;20057;-76
2022/03/12 05:46:06;;;;;;;13.80;6.82;;;;;;;;;;4854918;29;20041;-77
2022/03/12 05:48:32;;;;;;;19.35;6.95;;;;;;;;;;4852255;29;20541;-77
2022/03/12 05:50:59;;;;;;;9.30;6.30;;;;;;;;;;4847532;29;20041;-77
2022/03/12 05:53:25;;;;;;;11.63;6.43;;;;;;;;;;4825882;29;20065;-77
2022/03/12 05:55:53;;;;;;;12.93;6.50;;;;;;;;;;4837114;29;20556;-77
2022/03/12 05:58:19;;;;;;;10.65;6.53;;;;;;;;;;4834012;29;20386;-77
2022/03/12 06:00:46;;;;;;;12.63;7.45;;;;;;;;;;4832686;29;20059;-77
2022/03/12 06:03:12;;;;;;;12.77;7.10;;;;;;;;;;4858771;29;20162;-77
2022/03/12 06:05:41;;;;;;;11.75;7.13;;;;;;;;;;4843760;29;20097;-76
2022/03/12 06:08:08;;;;;;;16.23;6.97;;;;;;;;;;4855444;29;20048;-77
2022/03/12 06:10:35;;;;;;;12.95;6.72;;;;;;;;;;4850031;29;20557;-76
2022/03/12 06:13:02;;;;;;;11.05;6.60;;;;;;;;;;4844350;29;20136;-76
2022/03/12 06:15:28;;;;;;;8.88;6.32;;;;;;;;;;4856756;29;20058;-76
2022/03/12 06:17:55;;;;;;;9.45;6.55;;;;;;;;;;4823980;29;20092;-76
2022/03/12 06:20:22;;;;;;;11.35;6.75;;;;;;;;;;4832139;29;20050;-76
2022/03/12 06:22:52;;;;;;;9.57;6.50;;;;;;;;;;4837975;29;20045;-77
2022/03/12 06:25:19;;;;;;;10.63;6.60;;;;;;;;;;4837800;29;20154;-76
2022/03/12 06:27:53;;;;;;;10.68;6.32;;;;;;;;;;4821780;29;20061;-76
2022/03/12 06:30:21;;;;;;;9.73;6.47;;;;;;;;;;4826648;29;20053;-76
2022/03/12 06:32:47;;;;;;;14.38;6.25;;;;;;;;;;4837598;29;20041;-77
2022/03/12 06:35:14;;;;;;;13.52;6.70;;;;;;;;;;4825079;29;20041;-76
2022/03/12 06:37:40;;;;;;;17.60;6.75;;;;;;;;;;4825167;29;20053;-76
2022/03/12 06:40:08;;;;;;;9.88;6.25;;;;;;;;;;4840172;29;20053;-77
2022/03/12 06:42:34;;;;;;;11.40;7.10;;;;;;;;;;4822040;29;20080;-76
2022/03/12 06:45:01;;;;;;;10.32;6.57;;;;;;;;;;4839881;29;20109;-77
2022/03/12 06:47:30;;;;;;;9.52;6.85;;;;;;;;;;4839498;29;20161;-76
2022/03/12 06:49:58;;;;;;;13.20;7.35;;;;;;;;;;4838409;29;20498;-76
2022/03/12 06:52:24;;;;;;;12.63;6.97;;;;;;;;;;4824403;29;20053;-77
2022/03/12 06:54:51;;;;;;;10.07;6.57;;;;;;;;;;4839791;29;20054;-77
2022/03/12 06:57:17;;;;;;;9.18;6.40;;;;;;;;;;4838927;29;20148;-77
2022/03/12 06:59:44;;;;;;;13.05;6.47;;;;;;;;;;4822772;29;20153;-76
2022/03/12 07:02:10;;;;;;;10.07;6.28;;;;;;;;;;4822751;29;20085;-77
2022/03/12 07:04:36;;;;;;;13.68;6.75;;;;;;;;;;4823793;29;20050;-77
2022/03/12 07:07:02;;;;;;;10.07;6.40;;;;;;;;;;4819833;29;20049;-74
2022/03/12 07:09:28;;;;;;;10.00;6.57;;;;;;;;;;4837126;29;20121;-75
2022/03/12 07:11:58;;;;;;;11.75;7.25;;;;;;;;;;4839419;29;20371;-75
2022/03/12 07:14:24;;;;;;;9.68;5.80;;;;;;;;;;4839252;29;20121;-75
2022/03/12 07:16:51;;;;;;;12.10;6.88;;;;;;;;;;4838429;29;20078;-75
2022/03/12 07:19:17;;;;;;;13.38;7.15;;;;;;;;;;4855729;29;20061;-75
2022/03/12 07:21:43;;;;;;;10.57;6.68;;;;;;;;;;4860227;29;20144;-77
2022/03/12 07:24:09;;;;;;;10.05;7.53;;;;;;;;;;4861008;29;20060;-74
2022/03/12 07:26:35;;;;;;;11.43;6.38;;;;;;;;;;4843613;29;20045;-76
2022/03/12 07:29:01;;;;;;;9.95;6.68;;;;;;;;;;4844849;29;20069;-76
2022/03/12 07:31:27;;;;;;;11.65;6.93;;;;;;;;;;4830551;29;20531;-79
2022/03/12 07:33:53;;;;;;;9.70;6.72;;;;;;;;;;4847931;29;20895;-77
2022/03/12 07:36:19;;;;;;;9.60;6.85;;;;;;;;;;4835033;29;20136;-77
2022/03/12 07:38:46;;;;;;;11.88;8.15;;;;;;;;;;4848804;29;20501;-77
2022/03/12 07:41:12;;;;;;;9.10;6.68;;;;;;;;;;4843458;29;20326;-77
2022/03/12 07:43:38;;;;;;;12.23;7.47;;;;;;;;;;4845515;29;20059;-78
2022/03/12 07:46:05;;;;;;;11.20;7.60;;;;;;;;;;4861348;29;20045;-78
2022/03/12 07:48:31;;;;;;;11.60;7.43;;;;;;;;;;4862697;29;20120;-78
2022/03/12 07:51:00;;;;;;;9.20;7.22;;;;;;;;;;4861403;29;20052;-78
2022/03/12 07:53:26;;;;;;;10.75;7.07;;;;;;;;;;4831557;29;20061;-78
2022/03/12 07:55:52;;;;;;;;;;;;;;;;;;4863198;29;20125;-78
2022/03/12 07:58:18;;;;;;;10.60;7.47;;;;;;;;;;4846251;29;20368;-78
2022/03/12 08:00:44;;;;;;;;;;;;;;;;;;4846251;29;20108;-77
2022/03/12 08:03:10;;;;;;;;;;;;;;;;;;4845678;29;20415;-77
2022/03/12 08:05:36;;;;;;;8.90;7.07;;;;;;;;;;4846610;29;20006;-77
2022/03/12 08:08:04;;;;;;;15.55;8.02;;;;;;;;;;4861297;29;20381;-77
2022/03/12 08:11:24;;;;;;;10.32;7.47;;;;;;;;;;4860634;29;20076;-77
2022/03/12 08:13:17;;;;;;;;;;;;;;;;;;4860702;29;20067;-77
2022/03/12 08:15:45;;;;;;;;;;;;;;;;;;4862522;29;19963;-77
2022/03/12 08:18:11;;;;;;;;;;;;;;;;;;4845598;29;19923;-77
2022/03/12 08:20:37;;;;;;;;;;;;;;;;;;4862234;29;19927;-76
2022/03/12 08:23:04;;;;;;;;;;;;;;;;;;4859925;29;19976;-77
2022/03/12 08:25:29;;;;;;;;;;;;;;;;;;4861787;29;20313;-77
2022/03/12 08:27:55;;;;;;;;;;;;;;;;;;4861594;29;19927;-77
2022/03/12 08:30:21;;;;;;;10.65;8.23;;;;;;;;;;4860686;29;20291;-76
2022/03/12 08:32:48;;;;;;;;;;;;;;;;;;4847032;29;20048;-76
2022/03/12 08:35:14;;;;;;;;;;;;;;;;;;4846337;29;19937;-77
2022/03/12 08:37:40;;;;;;;;;;;;;;;;;;4862175;29;19927;-77
2022/03/12 08:40:06;;;;;;;;;;;;;;;;;;4847231;29;19928;-77
2022/03/12 08:42:32;;;;;;;;;;;;;;;;;;4861478;29;20066;-77
2022/03/12 08:44:58;;;;;;;;;;;;;;;;;;4845890;29;20018;-77
2022/03/12 08:47:24;;;;;;;;;;;;;;;;;;4860790;29;19924;-77
2022/03/12 08:49:50;;;;;;;;;;;;;;;;;;4861632;29;19928;-77
2022/03/12 08:52:16;;;;;;;;;;;;;;;;;;4845832;29;20371;-77
2022/03/12 08:54:42;;;;;;;12.30;8.75;;;;;;;;;;4857957;29;19924;-78
2022/03/12 08:57:08;;;;;;;10.88;7.95;;;;;;;;;;4861266;29;20115;-77
2022/03/12 08:59:34;;;;;;;15.05;8.30;;;;;;;;;;4845469;29;20041;-77
2022/03/12 09:02:00;;;;;;;;;;;;;;;;;;4830027;29;20139;-81
2022/03/12 09:04:26;;;;;;;;;;;;;;;;;;4860112;29;20010;-77
2022/03/12 09:06:52;;;;;;;;;;;;;;;;;;4861565;29;19930;-77
2022/03/12 09:09:18;;;;;;;;;;;;;;;;;;4861255;29;20318;-76
2022/03/12 09:11:44;;;;;;;;;;;;;;;;;;4846303;29;19939;-77
2022/03/12 09:14:10;;;;;;;;;;;;;;;;;;4859880;29;20427;-77
2022/03/12 09:16:36;;;;;;;;;;;;;;;;;;4860095;29;19930;-77
2022/03/12 09:19:02;;;;;;;;;;;;;;;;;;4850119;29;20299;-77
2022/03/12 09:21:28;;;;;;;;;;;;;;;;;;4826144;29;20364;-77
2022/03/12 09:23:54;;;;;;;;;;;;;;;;;;4827531;29;19939;-77
2022/03/12 09:26:21;;;;;;;;;;;;;;;;;;4827393;29;20404;-77
2022/03/12 09:28:48;;;;;;;;;;;;;;;;;;4842673;29;19928;-78
2022/03/12 09:31:14;;;;;;;;;;;;;;;;;;4841137;29;20027;-81
2022/03/12 09:33:40;;;;;;;16.63;9.27;;;;;;;;;;4842460;29;20012;-77
2022/03/12 09:36:07;;;;;;;12.02;8.38;;;;;;;;;;4840422;29;20058;-80
2022/03/12 09:38:33;;;;;;;15.80;8.43;;;;;;;;;;4839563;29;20113;-82
2022/03/12 09:40:59;;;;;;;12.88;8.85;;;;;;;;;;4813986;29;20074;-78
2022/03/12 09:43:26;;;;;;;11.55;8.60;;;;;;;;;;4816836;29;20053;-78
2022/03/12 09:45:52;;;;;;;13.05;9.07;;;;;;;;;;4823464;29;20050;-79
2022/03/12 09:48:18;;;;;;;11.30;8.90;;;;;;;;;;4830234;29;20057;-80
2022/03/12 09:50:44;;;;;;;16.67;9.00;;;;;;;;;;4840580;29;20045;-78
2022/03/12 09:53:10;;;;;;;11.10;8.52;;;;;;;;;;4811034;29;20489;-79
2022/03/12 09:55:37;;;;;;;13.40;8.55;;;;;;;;;;4811033;29;20118;-81
2022/03/12 09:58:03;;;;;;;12.30;8.98;;;;;;;;;;4824894;29;20081;-79
2022/03/12 10:00:29;;;;;;;12.40;8.65;;;;;;;;;;4839937;29;20113;-81
2022/03/12 10:02:55;;;;;;;11.07;8.73;;;;;;;;;;4840637;29;20105;-78
2022/03/12 10:05:22;;;;;;;20.60;9.48;;;;;;;;;;4839818;29;20136;-78
2022/03/12 10:07:49;;;;;;;11.55;8.88;;;;;;;;;;4826386;29;20092;-78
2022/03/12 10:10:17;;;;;;;12.75;8.55;;;;;;;;;;4826238;29;20050;-78
2022/03/12 10:12:47;;;;;;;12.55;8.80;;;;;;;;;;4826360;29;20082;-77
2022/03/12 10:15:15;;;;;;;12.68;9.77;;;;;;;;;;4839225;29;20057;-79
2022/03/12 10:17:41;;;;;;;17.92;10.55;;;;;;;;;;4825810;29;20046;-77
2022/03/12 10:20:11;;;;;;;20.05;14.07;;;;;;;;;;4829008;29;20049;-78
2022/03/12 10:22:41;;;;;;;18.15;9.82;;;;;;;;;;4853578;29;20053;-78
2022/03/12 10:25:07;;;;;;;9.40;8.05;;;;;;;;;;4857770;29;20053;-79
2022/03/12 10:27:34;;;;;;;14.90;8.68;;;;;;;;;;4829221;29;20074;-79
2022/03/12 10:30:00;;;;;;;10.98;8.25;;;;;;;;;;4857297;29;20541;-78
2022/03/12 10:32:29;;;;;;;12.93;8.63;;;;;;;;;;4856150;29;20056;-83
2022/03/12 10:34:56;;;;;;;12.75;9.15;;;;;;;;;;4855712;29;20055;-80
2022/03/12 10:37:27;;;;;;;11.88;8.27;;;;;;;;;;4841699;29;20080;-78
2022/03/12 10:40:14;;;;;;;24.95;14.93;;;;;;;;;;4857232;29;20048;-80
2022/03/12 10:43:00;;;;;;;15.75;10.68;;;;;;;;;;4853958;29;20072;-78
2022/03/12 10:45:27;;;;;;;11.20;7.35;;;;;;;;;;4854521;29;20052;-77
2022/03/12 10:47:56;;;;;;;11.57;8.27;;;;;;;;;;4855576;29;20203;-81
2022/03/12 10:50:25;;;;;;;17.05;10.88;;;;;;;;;;4857550;29;20051;-79
2022/03/12 10:52:52;;;;;;;12.75;8.93;;;;;;;;;;4845164;29;20198;-86
2022/03/12 10:55:23;;;;;;;10.07;7.20;;;;;;;;;;4842849;29;20179;-80
2022/03/12 10:57:58;;;;;;;11.05;6.28;;;;;;;;;;4841883;29;20049;-82
2022/03/12 11:00:29;;;;;;;11.27;8.98;;;;;;;;;;4839806;29;20144;-82
2022/03/12 11:02:59;;;;;;;12.38;8.88;;;;;;;;;;4841194;29;20053;-81
2022/03/12 11:05:34;;;;;;;15.15;10.55;;;;;;;;;;4857925;29;20085;-81
2022/03/12 11:08:16;;;;;;;11.57;8.15;;;;;;;;;;4855702;29;20055;-82
2022/03/12 11:10:53;;;;;;;11.65;8.57;;;;;;;;;;4842690;29;20056;-82
2022/03/12 11:13:35;;;;;;;10.93;7.95;;;;;;;;;;4855592;29;20140;-81
2022/03/12 11:16:16;;;;;;;9.38;7.07;;;;;;;;;;4856969;29;20061;-81
2022/03/12 11:18:51;;;;;;;11.68;6.93;;;;;;;;;;4841118;29;20059;-81
2022/03/12 11:21:26;;;;;;;13.48;9.68;;;;;;;;;;4840256;29;20060;-83
2022/03/12 11:23:53;;;;;;;24.45;15.18;;;;;;;;;;4853374;29;20049;-80
2022/03/12 11:26:19;;;;;;;11.48;7.75;;;;;;;;;;4852134;29;20108;-82
2022/03/12 11:28:56;;;;;;;8.95;6.40;;;;;;;;;;4841072;29;20061;-82
2022/03/12 11:31:39;;;;;;;14.32;7.50;;;;;;;;;;4852880;29;20096;-85
2022/03/12 11:34:19;;;;;;;10.35;6.75;;;;;;;;;;4853169;29;20517;-87
2022/03/12 11:36:45;;;;;;;10.00;7.85;;;;;;;;;;4853789;29;20088;-82
2022/03/12 11:39:16;;;;;;;11.98;7.72;;;;;;;;;;4832951;29;20183;-81
2022/03/12 11:42:00;;;;;;;12.25;7.55;;;;;;;;;;4837310;29;20197;-81
2022/03/12 11:44:27;;;;;;;9.05;6.10;;;;;;;;;;4839247;29;20193;-77
2022/03/12 11:46:53;;;;;;;10.00;6.43;;;;;;;;;;4840104;29;20064;-78
2022/03/12 11:49:20;;;;;;;9.65;5.63;;;;;;;;;;4837656;29;20523;-78
2022/03/12 11:51:47;;;;;;;8.07;5.72;;;;;;;;;;4855049;29;20128;-77
2022/03/12 11:54:13;;;;;;;10.68;6.03;;;;;;;;;;4824319;29;20086;-78
2022/03/12 11:56:39;;;;;;;11.73;8.32;;;;;;;;;;4854248;29;20183;-79
2022/03/12 11:59:06;;;;;;;12.38;8.80;;;;;;;;;;4854150;29;20159;-75
2022/03/12 12:01:36;;;;;;;9.30;6.50;;;;;;;;;;4854569;29;20043;-76
2022/03/12 12:04:02;;;;;;;9.57;6.18;;;;;;;;;;4858584;29;20057;-75
2022/03/12 12:06:28;;;;;;;9.07;6.05;;;;;;;;;;4856421;29;20048;-76
2022/03/12 12:08:55;;;;;;;7.40;5.32;;;;;;;;;;4847141;29;20548;-75
2022/03/12 12:11:22;;;;;;;9.93;6.03;;;;;;;;;;4844534;29;20485;-76
2022/03/12 12:13:48;;;;;;;6.13;4.82;;;;;;;;;;4846941;29;20057;-79
2022/03/12 12:16:16;;;;;;;7.55;5.10;;;;;;;;;;4859162;29;20060;-76
2022/03/12 12:18:42;;;;;;;6.88;4.82;;;;;;;;;;4844530;29;20061;-76
2022/03/12 12:21:14;;;;;;;13.15;5.00;;;;;;;;;;4830035;29;20049;-81
2022/03/12 12:23:40;;;;;;;8.23;5.43;;;;;;;;;;4858148;29;20109;-76
2022/03/12 12:26:07;;;;;;;10.07;5.88;;;;;;;;;;4853310;29;20056;-81
2022/03/12 12:28:45;;;;;;;9.82;5.90;;;;;;;;;;4856922;29;20053;-82
2022/03/12 12:31:14;;;;;;;7.82;5.10;;;;;;;;;;4842663;29;20510;-81
2022/03/12 12:33:44;;;;;;;9.27;5.32;;;;;;;;;;4859081;29;20508;-78
2022/03/12 12:36:12;;;;;;;9.75;5.50;;;;;;;;;;4859899;29;20049;-79
2022/03/12 12:38:40;;;;;;;7.63;5.35;;;;;;;;;;4857330;29;20496;-79
2022/03/12 12:41:06;;;;;;;9.35;5.38;;;;;;;;;;4857028;29;20124;-79
2022/03/12 12:43:42;;;;;;;8.25;5.72;;;;;;;;;;4874535;29;20477;-81
2022/03/12 12:46:09;;;;;;;6.68;5.25;;;;;;;;;;4855839;29;20464;-80
2022/03/12 12:48:38;;;;;;;11.73;6.20;;;;;;;;;;4858625;29;20061;-78
2022/03/12 12:51:15;;;;;;;8.40;5.28;;;;;;;;;;4858075;29;20455;-80
2022/03/12 12:53:52;;;;;;;30.60;7.32;;;;;;;;;;4859763;29;20060;-77
2022/03/12 12:56:18;;;;;;;10.15;5.07;;;;;;;;;;4844713;29;20057;-80
2022/03/12 12:58:47;;;;;;;7.60;5.07;;;;;;;;;;4842831;29;20064;-76
2022/03/12 13:01:17;;;;;;;6.47;4.45;;;;;;;;;;4860142;29;20068;-78
2022/03/12 13:03:48;;;;;;;10.52;4.80;;;;;;;;;;4859861;29;20053;-75
2022/03/12 13:06:35;;;;;;;9.60;4.20;;;;;;;;;;4858950;29;20112;-79
2022/03/12 13:09:04;;;;;;;6.47;4.47;;;;;;;;;;4832217;29;20147;-78
2022/03/12 13:11:33;;;;;;;10.82;4.85;;;;;;;;;;4845178;29;20132;-80
2022/03/12 13:14:00;;;;;;;7.90;5.00;;;;;;;;;;4856889;29;20041;-81
2022/03/12 13:16:27;;;;;;;13.20;5.43;;;;;;;;;;4856585;29;20105;-77
2022/03/12 13:18:53;;;;;;;7.15;4.70;;;;;;;;;;4844003;29;20057;-79
2022/03/12 13:21:24;;;;;;;10.43;4.35;;;;;;;;;;4838351;29;20164;-83
2022/03/12 13:23:50;;;;;;;8.63;5.00;;;;;;;;;;4842377;29;20052;-77
2022/03/12 13:26:17;;;;;;;12.93;5.13;;;;;;;;;;4845017;29;20070;-78
2022/03/12 13:28:49;;;;;;;7.20;5.22;;;;;;;;;;4843118;29;20491;-75
2022/03/12 13:31:29;;;;;;;8.88;4.95;;;;;;;;;;4859812;29;20131;-75
2022/03/12 13:34:07;;;;;;;7.35;4.82;;;;;;;;;;4856691;29;20121;-76
2022/03/12 13:36:54;;;;;;;9.10;5.53;;;;;;;;;;4841729;29;20451;-76
2022/03/12 13:39:21;;;;;;;9.30;5.60;;;;;;;;;;4859179;29;20414;-77
2022/03/12 13:41:47;;;;;;;8.75;4.85;;;;;;;;;;4859315;29;20113;-81
2022/03/12 13:44:15;;;;;;;7.10;5.03;;;;;;;;;;4858128;29;20558;-79
2022/03/12 13:46:41;;;;;;;9.93;5.32;;;;;;;;;;4858764;29;20045;-78
2022/03/12 13:49:09;;;;;;;7.18;4.82;;;;;;;;;;4859186;29;20074;-81
2022/03/12 13:51:36;;;;;;;10.13;5.13;;;;;;;;;;4842033;29;20061;-80
2022/03/12 13:54:03;;;;;;;8.25;5.15;;;;;;;;;;4857716;29;20089;-80
2022/03/12 13:56:31;;;;;;;7.93;5.15;;;;;;;;;;4857080;29;20053;-81
2022/03/12 13:59:07;;;;;;;11.75;5.22;;;;;;;;;;4859438;29;20378;-81
2022/03/12 14:01:34;;;;;;;10.48;5.18;;;;;;;;;;4842339;29;20301;-82
2022/03/12 14:04:00;;;;;;;6.90;5.10;;;;;;;;;;4859636;29;20449;-78
2022/03/12 14:06:33;;;;;;;7.18;4.93;;;;;;;;;;4857997;29;20041;-79
2022/03/12 14:09:04;;;;;;;7.82;4.90;;;;;;;;;;4859909;29;20071;-78
2022/03/12 14:11:34;;;;;;;6.22;3.97;;;;;;;;;;4858131;29;20713;-77
2022/03/12 14:14:12;;;;;;;10.52;4.55;;;;;;;;;;4843206;29;20113;-77
2022/03/12 14:16:42;;;;;;;7.47;4.70;;;;;;;;;;4840834;29;20057;-77
2022/03/12 14:19:10;;;;;;;7.80;4.55;;;;;;;;;;4856882;29;20105;-77
2022/03/12 14:21:48;;;;;;;8.20;4.75;;;;;;;;;;4855176;29;20060;-77
2022/03/12 14:24:22;;;;;;;8.10;4.70;;;;;;;;;;4856753;29;20549;-77
2022/03/12 14:26:59;;;;;;;12.73;5.45;;;;;;;;;;4841843;29;20037;-77
2022/03/12 14:29:29;;;;;;;8.23;4.32;;;;;;;;;;4840663;29;20041;-77
2022/03/12 14:31:57;;;;;;;9.40;5.18;;;;;;;;;;4840825;29;20056;-77
2022/03/12 14:34:27;;;;;;;6.80;4.65;;;;;;;;;;4842655;29;20041;-77
2022/03/12 14:36:53;;;;;;;9.40;4.95;;;;;;;;;;4857745;29;20472;-78
2022/03/12 14:39:21;;;;;;;8.23;5.07;;;;;;;;;;4841835;29;20049;-77
2022/03/12 14:41:48;;;;;;;7.85;5.00;;;;;;;;;;4837842;29;20097;-77
2022/03/12 14:44:15;;;;;;;14.00;5.60;;;;;;;;;;4856359;29;20528;-78
2022/03/12 14:46:46;;;;;;;12.20;5.72;;;;;;;;;;4871393;29;20057;-79
2022/03/12 14:49:39;;;;;;;10.23;5.60;;;;;;;;;;4842682;29;20055;-81
2022/03/12 14:52:06;;;;;;;9.07;5.65;;;;;;;;;;4836488;29;20140;-80